Time;durP1;ratioP1;P1;durP2;ratioP2;P2;SDS_P1;SDS_P2;PMS_P1;PMS_P2;Temp;Humidity;BMP_temperature;BMP_pressure;BME280_temperature;BME280_humidity;BME280_pressure;Samples;Min_cycle;Max_cycle;Signal;HPM_P1;HPM_P2
2021/09/13 00:00:58;;;;;;;;;;;15.40;96.30;;;;;;5070318;28;20315;-70
2021/09/13 00:03:23;;;;;;;;;;;15.30;96.50;;;;;;5071964;28;19912;-69
2021/09/13 00:05:51;;;;;;;;;;;15.30;96.50;;;;;;5069853;28;19923;-70
2021/09/13 00:08:16;;;;;;;;;;;15.20;96.40;;;;;;5071928;28;19912;-70
2021/09/13 00:10:43;;;;;;;;;;;15.20;96.50;;;;;;5071817;28;19923;-70
2021/09/13 00:13:09;;;;;;;;;;;15.20;96.40;;;;;;5071231;28;19916;-70
2021/09/13 00:15:36;;;;;;;;;;;15.10;96.40;;;;;;5071446;28;19917;-70
2021/09/13 00:18:01;;;;;;;;;;;15.00;96.20;;;;;;5071594;28;19926;-70
2021/09/13 00:20:27;;;;;;;;;;;15.00;96.70;;;;;;5069956;28;19916;-70
2021/09/13 00:22:56;;;;;;;;;;;15.00;96.50;;;;;;5070933;28;22262;-70
2021/09/13 00:25:21;;;;;;;;;;;14.90;96.60;;;;;;5071009;28;19930;-70
2021/09/13 00:27:48;;;;;;;;;;;14.90;96.40;;;;;;5070351;28;20007;-69
2021/09/13 00:30:15;;;;;;;;;;;14.90;96.40;;;;;;5071621;28;20007;-70
2021/09/13 00:32:41;;;;;;;;;;;14.90;96.60;;;;;;5069792;28;19923;-69
2021/09/13 00:35:07;;;;;;;;;;;14.80;96.40;;;;;;5070017;28;20011;-70
2021/09/13 00:37:34;;;;;;;;;;;14.80;96.40;;;;;;5071393;28;19917;-70
2021/09/13 00:40:06;;;;;;;;;;;14.80;96.60;;;;;;5069771;28;19921;-70
2021/09/13 00:42:33;;;;;;;;;;;14.80;96.60;;;;;;5071354;28;19934;-70
2021/09/13 00:45:00;;;;;;;;;;;14.80;96.60;;;;;;5070857;28;19948;-70
2021/09/13 00:47:25;;;;;;;;;;;14.70;96.50;;;;;;5070196;28;19928;-69
2021/09/13 00:49:51;;;;;;;;;;;14.70;96.70;;;;;;5071376;28;20037;-70
2021/09/13 00:52:17;;;;;;;;;;;14.70;96.70;;;;;;5069651;28;19925;-69
2021/09/13 00:54:43;;;;;;;;;;;14.70;96.70;;;;;;5069671;28;19917;-69
2021/09/13 00:57:08;;;;;;;;;;;14.70;96.60;;;;;;5071260;28;19922;-70
2021/09/13 00:59:34;;;;;;;;;;;14.70;96.80;;;;;;5069417;28;20004;-70
2021/09/13 01:01:59;;;;;;;;;;;14.70;96.70;;;;;;5071238;28;19916;-68
2021/09/13 01:04:25;;;;;;;;;;;14.70;96.80;;;;;;5052635;28;19999;-69
2021/09/13 01:06:50;;;;;;;;;;;14.70;96.80;;;;;;5071017;28;19923;-69
2021/09/13 01:09:16;;;;;;;;;;;14.70;96.70;;;;;;5071207;28;20314;-69
2021/09/13 01:11:42;;;;;;;;;;;14.70;96.90;;;;;;5071043;28;19920;-70
2021/09/13 01:14:08;;;;;;;;;;;14.70;97.20;;;;;;5074075;28;19946;-70
2021/09/13 01:16:33;;;;;;;;;;;14.80;97.30;;;;;;5073819;28;19923;-69
2021/09/13 01:18:59;;;;;;;;;;;14.80;97.10;;;;;;5056948;28;19927;-69
2021/09/13 01:21:26;;;;;;;;;;;14.90;97.30;;;;;;5058239;28;19920;-69
2021/09/13 01:23:52;;;;;;;;;;;15.00;97.30;;;;;;5077497;28;20277;-69
2021/09/13 01:26:17;;;;;;;;;;;15.00;97.30;;;;;;5075304;28;20001;-70
2021/09/13 01:28:43;;;;;;;;;;;15.10;97.10;;;;;;5074755;28;19924;-70
2021/09/13 01:31:12;;;;;;;;;;;15.10;97.20;;;;;;5073009;28;19916;-69
2021/09/13 01:33:41;;;;;;;;;;;15.10;97.20;;;;;;5074748;28;19934;-69
2021/09/13 01:36:09;;;;;;;;;;;15.20;97.30;;;;;;5072568;28;19916;-70
2021/09/13 01:38:36;;;;;;;;;;;15.20;97.10;;;;;;5073249;28;19962;-69
2021/09/13 01:41:03;;;;;;;;;;;15.20;97.30;;;;;;5073236;28;19943;-69
2021/09/13 01:43:29;;;;;;;;;;;15.20;97.20;;;;;;5072746;28;20343;-70
2021/09/13 01:45:55;;;;;;;;;;;15.30;97.20;;;;;;5072856;28;19942;-70
2021/09/13 01:48:21;;;;;;;;;;;15.30;97.00;;;;;;5072998;28;19920;-69
2021/09/13 01:50:50;;;;;;;;;;;15.30;97.20;;;;;;5072567;28;19916;-70
2021/09/13 01:53:19;;;;;;;;;;;15.30;97.30;;;;;;5072945;28;19921;-69
2021/09/13 01:55:45;;;;;;;;;;;15.30;97.20;;;;;;5072232;28;19917;-69
2021/09/13 01:58:11;;;;;;;;;;;15.30;97.00;;;;;;5072957;28;19997;-69
2021/09/13 02:00:37;;;;;;;;;;;15.30;97.10;;;;;;5073047;28;19916;-69
2021/09/13 02:03:03;;;;;;;;;;;15.30;97.10;;;;;;5072496;28;20487;-70
2021/09/13 02:05:40;;;;;;;;;;;15.30;97.20;;;;;;5072355;28;19917;-69
2021/09/13 02:08:07;;;;;;;;;;;15.40;97.00;;;;;;5055765;28;19920;-70
2021/09/13 02:10:33;;;;;;;;;;;15.30;97.10;;;;;;5072792;28;19923;-70
2021/09/13 02:12:58;;;;;;;;;;;15.30;97.20;;;;;;5072749;28;20270;-70
2021/09/13 02:15:31;;;;;;;;;;;15.30;97.20;;;;;;5072229;28;19916;-71
2021/09/13 02:17:56;;;;;;;;;;;15.30;97.10;;;;;;5072239;28;19974;-70
2021/09/13 02:20:22;;;;;;;;;;;15.30;97.30;;;;;;5055305;28;19923;-70
2021/09/13 02:22:48;;;;;;;;;;;15.30;97.30;;;;;;5073102;28;19924;-70
2021/09/13 02:25:17;;;;;;;;;;;15.40;97.30;;;;;;5072138;28;19920;-69
2021/09/13 02:27:44;;;;;;;;;;;15.30;97.10;;;;;;5071883;28;19970;-70
2021/09/13 02:30:10;;;;;;;;;;;15.30;97.30;;;;;;5073594;28;19917;-69
2021/09/13 02:32:36;;;;;;;;;;;15.30;97.30;;;;;;5055678;28;19920;-69
2021/09/13 02:35:05;;;;;;;;;;;15.40;97.10;;;;;;5071332;28;19995;-69
2021/09/13 02:37:32;;;;;;;;;;;15.40;97.10;;;;;;5072189;28;19917;-70
2021/09/13 02:39:58;;;;;;;;;;;15.40;97.30;;;;;;5071582;28;20373;-70
2021/09/13 02:42:23;;;;;;;;;;;15.40;97.40;;;;;;5073588;28;19995;-70
2021/09/13 02:44:50;;;;;;;;;;;15.40;97.40;;;;;;5071788;28;19916;-70
2021/09/13 02:47:16;;;;;;;;;;;15.50;97.30;;;;;;5071454;28;20481;-70
2021/09/13 02:49:42;;;;;;;;;;;15.50;97.40;;;;;;5071961;28;19916;-69
2021/09/13 02:52:08;;;;;;;;;;;15.50;97.30;;;;;;5071912;28;19916;-70
2021/09/13 02:54:34;;;;;;;;;;;15.40;97.30;;;;;;5071157;28;19924;-70
2021/09/13 02:56:59;;;;;;;;;;;15.40;97.10;;;;;;5073063;28;19916;-70
2021/09/13 02:59:25;;;;;;;;;;;15.40;97.10;;;;;;5071267;28;19927;-71
2021/09/13 03:01:52;;;;;;;;;;;15.40;97.30;;;;;;5071694;28;19920;-69
2021/09/13 03:04:18;;;;;;;;;;;15.40;97.30;;;;;;5054860;28;19923;-68
2021/09/13 03:06:43;;;;;;;;;;;15.40;97.30;;;;;;5072454;28;19920;-70
2021/09/13 03:09:09;;;;;;;;;;;15.40;97.10;;;;;;5054777;28;19966;-70
2021/09/13 03:11:37;;;;;;;;;;;15.40;97.30;;;;;;5071510;28;19921;-70
2021/09/13 03:14:03;;;;;;;;;;;15.40;97.30;;;;;;5070977;28;19917;-70
2021/09/13 03:16:29;;;;;;;;;;;15.40;97.30;;;;;;5070905;28;19923;-70
2021/09/13 03:18:55;;;;;;;;;;;15.40;97.20;;;;;;5070661;28;19927;-70
2021/09/13 03:21:21;;;;;;;;;;;15.30;97.40;;;;;;5054966;28;19917;-68
2021/09/13 03:23:46;;;;;;;;;;;15.40;97.40;;;;;;5072546;28;19955;-70
2021/09/13 03:26:12;;;;;;;;;;;15.40;97.40;;;;;;5070589;28;19916;-70
2021/09/13 03:28:38;;;;;;;;;;;15.40;97.30;;;;;;5054616;28;19917;-68
2021/09/13 03:31:04;;;;;;;;;;;15.50;97.50;;;;;;5071003;28;19940;-70
2021/09/13 03:33:33;;;;;;;;;;;15.50;97.40;;;;;;5072201;28;20353;-69
2021/09/13 03:35:59;;;;;;;;;;;15.50;97.40;;;;;;5069862;28;19916;-71
2021/09/13 03:38:24;;;;;;;;;;;15.50;97.30;;;;;;5072323;28;20046;-70
2021/09/13 03:40:50;;;;;;;;;;;15.50;97.50;;;;;;5071285;28;19917;-69
2021/09/13 03:43:17;;;;;;;;;;;15.50;97.50;;;;;;5070938;28;19927;-69
2021/09/13 03:45:42;;;;;;;;;;;15.50;97.30;;;;;;5070124;28;19916;-70
2021/09/13 03:48:26;;;;;;;;;;;15.50;97.20;;;;;;5056492;28;19973;-69
2021/09/13 03:50:52;;;;;;;;;;;15.50;97.40;;;;;;5070249;28;19924;-69
2021/09/13 03:53:18;;;;;;;;;;;15.50;97.40;;;;;;5070703;28;19920;-70
2021/09/13 03:55:44;;;;;;;;;;;15.50;97.40;;;;;;5053411;28;19943;-68
2021/09/13 03:58:11;;;;;;;;;;;15.50;97.00;;;;;;5054198;28;19921;-70
2021/09/13 04:00:37;;;;;;;;;;;15.50;97.20;;;;;;5072014;28;19917;-70
2021/09/13 04:03:09;;;;;;;;;;;15.40;97.10;;;;;;5070098;28;19966;-70
2021/09/13 04:05:41;;;;;;;;;;;15.40;97.20;;;;;;5072311;28;19916;-69
2021/09/13 04:08:43;;;;;;;;;;;15.40;97.10;;;;;;5072222;28;19923;-70
2021/09/13 04:14:26;;;;;;;;;;;15.30;97.30;;;;;;5071123;28;20372;-71
2021/09/13 04:16:58;;;;;;;;;;;15.40;97.30;;;;;;5066689;28;19929;-69
2021/09/13 04:19:53;;;;;;;;;;;15.30;97.40;;;;;;5039645;28;19927;-70
2021/09/13 04:22:31;;;;;;;;;;;15.30;97.30;;;;;;5036234;28;19924;-70
2021/09/13 04:25:18;;;;;;;;;;;15.40;97.20;;;;;;5030117;28;19917;-69
2021/09/13 04:27:49;;;;;;;;;;;15.30;97.10;;;;;;5030810;28;19921;-66
2021/09/13 04:30:33;;;;;;;;;;;15.30;97.30;;;;;;5030463;28;20340;-67
2021/09/13 04:33:17;;;;;;;;;;;15.30;97.40;;;;;;5031671;28;20008;-66
2021/09/13 04:35:58;;;;;;;;;;;15.30;97.30;;;;;;5055998;28;20002;-66
2021/09/13 04:38:40;;;;;;;;;;;15.30;97.20;;;;;;5065022;28;19921;-66
2021/09/13 04:41:29;;;;;;;;;;;15.30;97.20;;;;;;5070141;28;19970;-66
2021/09/13 04:44:17;;;;;;;;;;;15.30;97.40;;;;;;5067892;28;19938;-67
2021/09/13 04:47:02;;;;;;;;;;;15.30;97.20;;;;;;5072176;28;19917;-66
2021/09/13 04:49:59;;;;;;;;;;;15.30;97.30;;;;;;5074837;28;19962;-66
2021/09/13 04:52:53;;;;;;;;;;;15.30;97.30;;;;;;5074890;28;19939;-66
2021/09/13 04:55:19;;;;;;;;;;;15.30;97.40;;;;;;5073864;28;20373;-67
2021/09/13 04:57:45;;;;;;;;;;;15.30;97.30;;;;;;5073830;28;20377;-67
2021/09/13 05:00:12;;;;;;;;;;;15.30;97.50;;;;;;5073529;28;19932;-65
2021/09/13 05:02:37;;;;;;;;;;;15.40;97.50;;;;;;5073839;28;20376;-67
2021/09/13 05:05:03;;;;;;;;;;;15.40;97.40;;;;;;5073469;28;19948;-67
2021/09/13 05:07:29;;;;;;;;;;;15.40;97.30;;;;;;5073336;28;19917;-67
2021/09/13 05:09:56;;;;;;;;;;;15.40;97.50;;;;;;5073855;28;19917;-67
2021/09/13 05:12:21;;;;;;;;;;;15.40;97.50;;;;;;5073264;28;19916;-67
2021/09/13 05:14:47;;;;;;;;;;;15.40;97.40;;;;;;5074907;28;20368;-66
2021/09/13 05:17:12;;;;;;;;;;;15.50;97.30;;;;;;5073423;28;20364;-66
2021/09/13 05:19:38;;;;;;;;;;;15.40;97.50;;;;;;5073197;28;19947;-67
2021/09/13 05:22:04;;;;;;;;;;;15.50;97.50;;;;;;5073576;28;19920;-66
2021/09/13 05:24:30;;;;;;;;;;;15.50;97.50;;;;;;5073001;28;20007;-66
2021/09/13 05:27:00;;;;;;;;;;;15.50;97.30;;;;;;5073417;28;19919;-66
2021/09/13 05:29:25;;;;;;;;;;;15.50;97.40;;;;;;5074736;28;19920;-67
2021/09/13 05:31:51;;;;;;;;;;;15.50;97.40;;;;;;5072908;28;20018;-67
2021/09/13 05:34:17;;;;;;;;;;;15.60;97.50;;;;;;5074612;28;20280;-66
2021/09/13 05:36:43;;;;;;;;;;;15.60;97.60;;;;;;5073278;28;19917;-66
2021/09/13 05:39:09;;;;;;;;;;;15.70;97.40;;;;;;5072826;28;19955;-67
2021/09/13 05:41:49;;;;;;;;;;;15.70;97.50;;;;;;5073280;28;19917;-66
2021/09/13 05:44:18;;;;;;;;;;;15.80;97.60;;;;;;5072602;28;19917;-65
2021/09/13 05:46:44;;;;;;;;;;;15.80;97.40;;;;;;5073490;28;19916;-66
2021/09/13 05:49:10;;;;;;;;;;;15.80;97.20;;;;;;5073183;28;19912;-66
2021/09/13 05:51:39;;;;;;;;;;;15.80;97.30;;;;;;5072908;28;20400;-66
2021/09/13 05:54:07;;;;;;;;;;;15.80;97.30;;;;;;5073191;28;19961;-67
2021/09/13 05:56:36;;;;;;;;;;;15.80;97.10;;;;;;5072393;28;19921;-67
2021/09/13 05:59:02;;;;;;;;;;;15.80;97.00;;;;;;5071483;28;19921;-65
2021/09/13 06:01:28;;;;;;;;;;;15.80;97.20;;;;;;5056191;28;19923;-67
2021/09/13 06:03:54;;;;;;;;;;;15.80;97.30;;;;;;5073863;28;20028;-66
2021/09/13 06:06:20;;;;;;;;;;;15.80;97.20;;;;;;5056412;28;19917;-66
2021/09/13 06:08:46;;;;;;;;;;;15.80;96.80;;;;;;5072364;28;19921;-67
2021/09/13 06:11:11;;;;;;;;;;;15.80;97.10;;;;;;5072347;28;20376;-67
2021/09/13 06:13:42;;;;;;;;;;;15.80;97.10;;;;;;5072543;28;19921;-66
2021/09/13 06:16:08;;;;;;;;;;;15.90;97.20;;;;;;5072054;28;19923;-67
2021/09/13 06:18:37;;;;;;;;;;;15.90;97.00;;;;;;5073944;28;19921;-65
2021/09/13 06:21:03;;;;;;;;;;;15.90;97.20;;;;;;5071925;28;20329;-66
2021/09/13 06:23:29;;;;;;;;;;;16.00;97.10;;;;;;5072581;28;20008;-66
2021/09/13 06:25:55;;;;;;;;;;;16.00;97.10;;;;;;5072302;28;19923;-66
2021/09/13 06:28:21;;;;;;;;;;;16.00;96.80;;;;;;5073593;28;20003;-70
2021/09/13 06:30:48;;;;;;;;;;;16.00;97.00;;;;;;5072500;28;19928;-67
2021/09/13 06:33:17;;;;;;;;;;;16.10;96.90;;;;;;5071907;28;20012;-67
2021/09/13 06:35:43;;;;;;;;;;;16.00;96.70;;;;;;5071981;28;19943;-66
2021/09/13 06:38:13;;;;;;;;;;;16.10;96.70;;;;;;5072138;28;19917;-66
2021/09/13 06:40:39;;;;;;;;;;;16.10;96.90;;;;;;5071635;28;19931;-67
2021/09/13 06:43:05;;;;;;;;;;;16.10;96.80;;;;;;5073511;28;19912;-67
2021/09/13 06:45:43;;;;;;;;;;;16.20;96.70;;;;;;5071383;28;20288;-65
2021/09/13 06:48:10;;;;;;;;;;;16.20;96.40;;;;;;5072037;28;19924;-66
2021/09/13 06:50:37;;;;;;;;;;;16.30;96.60;;;;;;5072040;28;19913;-66
2021/09/13 06:53:03;;;;;;;;;;;16.30;96.50;;;;;;5071555;28;20289;-66
2021/09/13 06:55:29;;;;;;;;;;;16.30;96.50;;;;;;5071810;28;19927;-67
2021/09/13 06:57:54;;;;;;;;;;;16.40;96.30;;;;;;5073076;28;19920;-67
2021/09/13 07:00:20;;;;;;;;;;;16.40;96.30;;;;;;5072748;28;19928;-67
2021/09/13 07:02:46;;;;;;;;;;;16.40;96.40;;;;;;5073104;28;19920;-66
2021/09/13 07:05:12;;;;;;;;;;;16.40;96.40;;;;;;5072340;28;19920;-67
2021/09/13 07:07:38;;;;;;;;;;;16.50;96.10;;;;;;5072696;28;19925;-67
2021/09/13 07:10:05;;;;;;;;;;;16.50;96.20;;;;;;5072473;28;19916;-66
2021/09/13 07:12:30;;;;;;;;;;;16.60;96.00;;;;;;5072518;28;20029;-65
2021/09/13 07:14:58;;;;;;;;;;;16.60;96.20;;;;;;5072637;28;19966;-67
2021/09/13 07:17:25;;;;;;;;;;;16.70;95.80;;;;;;5072189;28;19928;-67
2021/09/13 07:19:52;;;;;;;;;;;16.70;96.00;;;;;;5072499;28;19932;-67
2021/09/13 07:22:18;;;;;;;;;;;16.70;96.10;;;;;;5072594;28;19917;-66
2021/09/13 07:24:44;;;;;;;;;;;16.80;96.00;;;;;;5071885;28;19955;-67
2021/09/13 07:27:13;;;;;;;;;;;16.90;95.80;;;;;;5072512;28;20427;-67
2021/09/13 07:29:39;;;;;;;;;;;16.90;96.00;;;;;;5072541;28;19916;-66
2021/09/13 07:32:05;;;;;;;;;;;17.00;95.70;;;;;;5070748;28;19916;-66
2021/09/13 07:34:30;;;;;;;;;;;17.00;95.50;;;;;;5072363;28;20285;-66
2021/09/13 07:36:56;;;;;;;;;;;;;;;;;;5071913;28;20377;-66
2021/09/13 07:39:23;;;;;;;;;;;16.90;95.10;;;;;;5070850;28;19921;-67
2021/09/13 07:41:48;;;;;;;;;;;16.90;95.40;;;;;;5054416;28;19917;-67
2021/09/13 07:44:14;;;;;;;;;;;17.00;95.40;;;;;;5071737;28;19943;-67
2021/09/13 07:46:39;;;;;;;;;;;17.00;95.00;;;;;;5072110;28;19951;-66
2021/09/13 07:49:05;;;;;;;;;;;16.90;94.70;;;;;;5071849;28;19987;-67
2021/09/13 07:51:31;;;;;;;;;;;16.90;94.90;;;;;;5071554;28;19966;-66
2021/09/13 07:53:56;;;;;;;;;;;16.80;94.80;;;;;;5070905;28;19966;-67
2021/09/13 07:56:22;;;;;;;;;;;16.80;94.60;;;;;;5071379;28;19947;-67
2021/09/13 07:58:47;;;;;;;;;;;16.90;94.50;;;;;;5071742;28;19947;-66
2021/09/13 08:01:13;;;;;;;;;;;16.90;94.80;;;;;;5070591;28;19920;-66
2021/09/13 08:03:38;;;;;;;;;;;16.90;94.50;;;;;;5071732;28;19917;-67
2021/09/13 08:06:06;;;;;;;;;;;16.90;94.20;;;;;;5071555;28;19924;-67
2021/09/13 08:08:32;;;;;;;;;;;16.80;94.00;;;;;;5071804;28;19916;-68
2021/09/13 08:10:57;;;;;;;;;;;16.90;94.30;;;;;;5071494;28;20432;-67
2021/09/13 08:13:23;;;;;;;;;;;16.80;94.00;;;;;;5070336;28;19939;-66
2021/09/13 08:15:51;;;;;;;;;;;16.90;94.10;;;;;;5071014;28;19917;-67
2021/09/13 08:18:17;;;;;;;;;;;16.90;93.80;;;;;;5070183;28;19927;-68
2021/09/13 08:20:43;;;;;;;;;;;16.90;93.90;;;;;;5071212;28;20309;-67
2021/09/13 08:23:09;;;;;;;;;;;17.00;93.60;;;;;;5071278;28;20011;-68
2021/09/13 08:25:37;;;;;;;;;;;16.90;93.50;;;;;;5071435;28;19921;-68
2021/09/13 08:28:23;;;;;;;;;;;17.00;93.30;;;;;;5070511;28;19916;-66
2021/09/13 08:30:49;;;;;;;;;;;17.00;93.40;;;;;;5071560;28;19940;-66
2021/09/13 08:33:15;;;;;;;;;;;17.10;93.30;;;;;;5071475;28;19916;-67
2021/09/13 08:35:41;;;;;;;;;;;17.10;93.20;;;;;;5070594;28;19935;-67
2021/09/13 08:38:06;;;;;;;;;;;17.30;92.90;;;;;;5068907;28;19916;-66
2021/09/13 08:40:33;;;;;;;;;;;17.30;93.20;;;;;;5068330;28;19916;-65
2021/09/13 08:42:59;;;;;;;;;;;17.30;92.90;;;;;;5068130;28;19966;-66
2021/09/13 08:46:08;;;;;;;;;;;17.40;92.80;;;;;;5067581;28;19931;-66
2021/09/13 08:53:35;;;;;;;;;;;17.60;92.40;;;;;;5070219;28;19917;-68
2021/09/13 08:56:03;;;;;;;;;;;17.70;92.50;;;;;;5069533;28;19939;-67
2021/09/13 08:58:32;;;;;;;;;;;18.00;92.30;;;;;;5074000;28;19924;-67
2021/09/13 09:00:58;;;;;;;;;;;18.10;92.40;;;;;;5073576;28;20429;-66
2021/09/13 09:03:24;;;;;;;;;;;18.20;92.00;;;;;;5072158;28;19917;-66
2021/09/13 09:05:51;;;;;;;;;;;18.30;91.70;;;;;;5071430;28;19916;-68
2021/09/13 09:08:27;;;;;;;;;;;18.50;91.80;;;;;;5070831;28;19928;-67
2021/09/13 09:10:54;;;;;;;;;;;18.60;92.00;;;;;;5069479;28;19923;-66
2021/09/13 09:13:19;;;;;;;;;;;18.80;91.50;;;;;;5071029;28;19913;-66
2021/09/13 09:15:56;;;;;;;;;;;18.80;91.00;;;;;;5070350;28;20312;-67
2021/09/13 09:18:22;;;;;;;;;;;18.90;90.70;;;;;;5070706;28;20011;-67
2021/09/13 09:20:48;;;;;;;;;;;18.90;90.10;;;;;;5070749;28;19939;-66
2021/09/13 09:23:14;;;;;;;;;;;18.90;90.10;;;;;;5071054;28;20380;-67
2021/09/13 09:25:40;;;;;;;;;;;18.80;89.50;;;;;;5070848;28;19943;-67
2021/09/13 09:28:11;;;;;;;;;;;18.50;88.60;;;;;;5071491;28;20337;-67
2021/09/13 09:30:41;;;;;;;;;;;18.50;88.70;;;;;;5073861;28;20400;-66
2021/09/13 09:33:14;;;;;;;;;;;18.30;88.40;;;;;;5076235;28;19999;-68
2021/09/13 09:35:44;;;;;;;;;;;18.20;88.50;;;;;;5074400;28;19971;-67
2021/09/13 09:38:47;;;;;;;;;;;17.90;87.90;;;;;;5073213;28;19965;-68
2021/09/13 09:41:17;;;;;;;;;;;17.90;88.70;;;;;;5019833;28;19923;-67
2021/09/13 09:43:48;;;;;;;;;;;17.80;88.90;;;;;;5074783;28;19992;-67
2021/09/13 09:46:14;;;;;;;;;;;17.80;89.50;;;;;;5073736;28;19916;-67
2021/09/13 09:48:40;;;;;;;;;;;18.10;89.90;;;;;;5074455;28;19966;-66
2021/09/13 09:51:25;;;;;;;;;;;18.20;90.10;;;;;;5072596;28;19924;-67
2021/09/13 09:53:51;;;;;;;;;;;18.40;90.30;;;;;;5074257;28;20293;-66
2021/09/13 09:56:16;;;;;;;;;;;18.60;89.00;;;;;;5072578;28;19921;-67
2021/09/13 09:58:58;;;;;;;;;;;18.60;87.90;;;;;;5073450;28;20024;-66
2021/09/13 10:01:31;;;;;;;;;;;18.50;88.10;;;;;;5073775;28;19916;-67
2021/09/13 10:03:56;;;;;;;;;;;18.40;88.00;;;;;;5074118;28;19966;-66
2021/09/13 10:06:22;;;;;;;;;;;18.40;87.50;;;;;;5073852;28;19916;-66
2021/09/13 10:08:48;;;;;;;;;;;18.20;86.40;;;;;;5073672;28;20007;-66
2021/09/13 10:11:13;;;;;;;;;;;18.10;87.00;;;;;;5072750;28;19913;-66
2021/09/13 10:13:40;;;;;;;;;;;18.00;87.60;;;;;;5074237;28;20333;-66
2021/09/13 10:16:06;;;;;;;;;;;18.00;87.70;;;;;;5073193;28;19917;-67
2021/09/13 10:18:32;;;;;;;;;;;17.90;87.20;;;;;;5073854;28;20007;-67
2021/09/13 10:20:57;;;;;;;;;;;17.90;87.70;;;;;;5073477;28;20003;-66
2021/09/13 10:23:23;;;;;;;;;;;17.80;87.40;;;;;;5073915;28;19917;-66
2021/09/13 10:25:48;;;;;;;;;;;17.70;87.50;;;;;;5074029;28;19917;-66
2021/09/13 10:28:14;;;;;;;;;;;17.60;87.60;;;;;;5074285;28;19916;-68
2021/09/13 10:30:50;;;;;;;;;;;17.70;88.10;;;;;;5072698;28;19942;-69
2021/09/13 10:33:16;;;;;;;;;;;17.70;88.60;;;;;;5073633;28;19920;-68
2021/09/13 10:35:58;;;;;;;;;;;17.80;89.00;;;;;;5074450;28;20393;-69
2021/09/13 10:38:43;;;;;;;;;;;18.00;88.50;;;;;;5074350;28;20430;-69
2021/09/13 10:41:09;;;;;;;;;;;18.10;89.20;;;;;;5074815;28;19916;-68
2021/09/13 10:43:34;;;;;;;;;;;18.40;89.90;;;;;;5071469;28;19912;-68
2021/09/13 10:46:00;;;;;;;;;;;18.80;90.20;;;;;;5072645;28;19924;-69
2021/09/13 10:48:25;;;;;;;;;;;19.40;89.90;;;;;;5073302;28;20295;-67
2021/09/13 10:50:55;;;;;;;;;;;19.70;89.90;;;;;;5072868;28;20003;-68
2021/09/13 10:53:21;;;;;;;;;;;20.00;88.50;;;;;;5073187;28;19962;-69
2021/09/13 10:55:49;;;;;;;;;;;20.00;86.00;;;;;;5072689;28;19920;-68
2021/09/13 10:58:33;;;;;;;;;;;19.60;83.40;;;;;;5072471;28;19975;-68
2021/09/13 11:01:00;;;;;;;;;;;19.50;84.10;;;;;;5072591;28;20364;-67
2021/09/13 11:03:29;;;;;;;;;;;19.40;85.70;;;;;;5071517;28;20007;-69
2021/09/13 11:06:03;;;;;;;;;;;19.50;84.80;;;;;;5072648;28;20385;-69
2021/09/13 11:08:30;;;;;;;;;;;19.50;85.40;;;;;;5072362;28;19916;-68
2021/09/13 11:10:56;;;;;;;;;;;19.70;86.40;;;;;;5054714;28;19912;-69
2021/09/13 11:13:22;;;;;;;;;;;20.00;85.70;;;;;;5072525;28;19923;-68
2021/09/13 11:15:48;;;;;;;;;;;20.30;85.30;;;;;;5072260;28;20418;-68
2021/09/13 11:18:32;;;;;;;;;;;20.70;84.50;;;;;;5071003;28;19974;-68
2021/09/13 11:21:20;;;;;;;;;;;20.90;84.80;;;;;;5072260;28;19916;-68
2021/09/13 11:23:47;;;;;;;;;;;21.10;83.30;;;;;;5072011;28;20273;-69
2021/09/13 11:26:14;;;;;;;;;;;21.20;82.20;;;;;;5070735;28;19917;-69
2021/09/13 11:28:57;;;;;;;;;;;21.10;79.20;;;;;;5071016;28;19912;-68
2021/09/13 11:31:34;;;;;;;;;;;21.00;80.00;;;;;;5070834;28;19923;-69
2021/09/13 11:34:15;;;;;;;;;;;20.90;80.50;;;;;;5072220;28;19954;-69
2021/09/13 11:36:54;;;;;;;;;;;20.80;79.50;;;;;;5072631;28;19924;-69
2021/09/13 11:39:21;;;;;;;;;;;20.50;78.40;;;;;;5071787;28;20376;-68
2021/09/13 11:42:03;;;;;;;;;;;20.30;78.20;;;;;;5072276;28;19917;-69
2021/09/13 11:44:31;;;;;;;;;;;20.00;78.90;;;;;;5070229;28;19921;-68
2021/09/13 11:46:57;;;;;;;;;;;;;;;;;;5071836;28;20021;-68
2021/09/13 11:49:27;;;;;;;;;;;19.70;78.60;;;;;;5072108;28;19948;-70
2021/09/13 11:52:01;;;;;;;;;;;19.60;79.80;;;;;;5071445;28;19917;-69
2021/09/13 11:54:28;;;;;;;;;;;19.70;80.60;;;;;;5071506;28;19924;-68
2021/09/13 11:56:54;;;;;;;;;;;20.00;81.80;;;;;;5068659;28;19923;-70
2021/09/13 11:59:20;;;;;;;;;;;20.30;80.30;;;;;;5071653;28;19921;-70
2021/09/13 12:01:56;;;;;;;;;;;20.40;79.20;;;;;;5071468;28;20013;-68
2021/09/13 12:04:21;;;;;;;;;;;20.30;79.10;;;;;;5071593;28;19916;-70
2021/09/13 12:07:02;;;;;;;;;;;20.20;78.90;;;;;;5071740;28;19962;-69
2021/09/13 12:09:28;;;;;;;;;;;20.20;78.70;;;;;;5071331;28;19924;-70
2021/09/13 12:11:54;;;;;;;;;;;20.00;78.30;;;;;;5071611;28;19917;-70
2021/09/13 12:14:19;;;;;;;;;;;19.80;78.50;;;;;;5069735;28;20369;-70
2021/09/13 12:17:03;;;;;;;;;;;19.80;79.00;;;;;;5071503;28;20368;-70
2021/09/13 12:19:29;;;;;;;;;;;19.70;78.30;;;;;;5071051;28;20032;-70
2021/09/13 12:21:59;;;;;;;;;;;19.50;78.10;;;;;;5071428;28;19947;-68
2021/09/13 12:24:24;;;;;;;;;;;19.30;78.60;;;;;;5070892;28;20007;-68
2021/09/13 12:26:50;;;;;;;;;;;19.20;78.70;;;;;;5071234;28;19970;-70
2021/09/13 12:29:15;;;;;;;;;;;19.10;78.80;;;;;;5070263;28;19916;-71
2021/09/13 12:31:41;;;;;;;;;;;19.10;79.40;;;;;;5065945;28;19924;-70
2021/09/13 12:34:06;;;;;;;;;;;19.10;79.30;;;;;;5046264;28;19917;-70
2021/09/13 12:36:32;;;;;;;;;;;19.00;79.30;;;;;;5053726;28;19921;-70
2021/09/13 12:38:58;;;;;;;;;;;18.90;79.20;;;;;;5051345;28;20372;-70
2021/09/13 12:41:30;;;;;;;;;;;19.00;79.40;;;;;;5051369;28;19912;-70
2021/09/13 12:43:56;;;;;;;;;;;19.00;79.80;;;;;;5050877;28;19923;-70
2021/09/13 12:46:21;;;;;;;;;;;19.00;79.90;;;;;;5050867;28;19917;-70
2021/09/13 12:48:48;;;;;;;;;;;19.20;79.60;;;;;;5051073;28;19921;-70
2021/09/13 12:51:16;;;;;;;;;;;19.20;79.60;;;;;;5069619;28;19916;-70
2021/09/13 12:53:54;;;;;;;;;;;19.20;79.90;;;;;;5071054;28;19920;-70
2021/09/13 12:56:20;;;;;;;;;;;19.30;80.00;;;;;;5069250;28;19917;-70
2021/09/13 12:58:45;;;;;;;;;;;19.40;79.70;;;;;;5070979;28;19926;-68
2021/09/13 13:01:28;;;;;;;;;;;19.50;79.70;;;;;;5071297;28;20262;-71
2021/09/13 13:03:57;;;;;;;;;;;19.50;79.50;;;;;;5069333;28;19920;-70
2021/09/13 13:06:22;;;;;;;;;;;19.60;79.80;;;;;;5069531;28;20381;-70
2021/09/13 13:08:48;;;;;;;;;;;19.90;80.20;;;;;;5073814;28;19923;-70
2021/09/13 13:11:14;;;;;;;;;;;20.10;80.40;;;;;;5073560;28;19916;-70
2021/09/13 13:13:39;;;;;;;;;;;20.40;79.50;;;;;;5074978;28;19916;-69
2021/09/13 13:16:05;;;;;;;;;;;20.40;78.20;;;;;;5072864;28;19916;-69
2021/09/13 13:18:31;;;;;;;;;;;20.50;78.10;;;;;;5068917;28;19924;-70
2021/09/13 13:20:57;;;;;;;;;;;20.60;78.20;;;;;;5064732;28;19920;-70
2021/09/13 13:23:23;;;;;;;;;;;20.50;77.50;;;;;;5060213;28;20011;-69
2021/09/13 13:25:49;;;;;;;;;;;20.40;76.90;;;;;;5054390;28;20434;-69
2021/09/13 13:28:17;;;;;;;;;;;20.10;75.60;;;;;;5054314;28;19917;-69
2021/09/13 13:30:42;;;;;;;;;;;20.00;76.00;;;;;;5053421;28;20062;-69
2021/09/13 13:33:08;;;;;;;;;;;19.80;76.10;;;;;;5054679;28;20421;-70
2021/09/13 13:35:34;;;;;;;;;;;19.60;76.70;;;;;;5053911;28;20203;-71
2021/09/13 13:38:00;;;;;;;;;;;19.50;76.50;;;;;;5054450;28;20468;-70
2021/09/13 13:40:26;;;;;;;;;;;19.50;77.20;;;;;;5054425;28;19928;-69
2021/09/13 13:42:51;;;;;;;;;;;19.50;77.80;;;;;;5053951;28;20331;-70
2021/09/13 13:45:17;;;;;;;;;;;19.50;77.90;;;;;;5054111;28;19925;-69
2021/09/13 13:47:43;;;;;;;;;;;19.50;77.20;;;;;;5061415;28;19923;-70
2021/09/13 13:50:10;;;;;;;;;;;19.50;77.70;;;;;;5073138;28;20000;-71
2021/09/13 13:52:36;;;;;;;;;;;19.50;77.90;;;;;;5074078;28;19943;-70
2021/09/13 13:55:01;;;;;;;;;;;19.50;77.90;;;;;;5072256;28;19924;-69
2021/09/13 13:57:29;;;;;;;;;;;19.50;77.40;;;;;;5072808;28;20012;-70
2021/09/13 13:59:55;;;;;;;;;;;19.50;77.70;;;;;;5074114;28;19927;-70
2021/09/13 14:02:21;;;;;;;;;;;19.50;77.70;;;;;;5073530;28;19916;-71
2021/09/13 14:04:46;;;;;;;;;;;19.40;77.90;;;;;;5070565;28;19995;-70
2021/09/13 14:07:12;;;;;;;;;;;19.50;77.90;;;;;;5073446;28;19921;-69
2021/09/13 14:09:38;;;;;;;;;;;19.90;77.80;;;;;;5073926;28;19970;-70
2021/09/13 14:12:04;;;;;;;;;;;19.60;78.10;;;;;;5073699;28;19920;-70
2021/09/13 14:14:29;;;;;;;;;;;19.60;78.00;;;;;;5073262;28;19916;-70
2021/09/13 14:16:55;;;;;;;;;;;19.60;77.70;;;;;;5073667;28;20347;-68
2021/09/13 14:19:20;;;;;;;;;;;19.70;76.90;;;;;;5072351;28;19921;-68
2021/09/13 14:21:46;;;;;;;;;;;19.80;77.20;;;;;;5073669;28;20376;-68
2021/09/13 14:24:11;;;;;;;;;;;19.80;77.10;;;;;;5073630;28;19923;-69
2021/09/13 14:26:37;;;;;;;;;;;19.90;76.80;;;;;;5073096;28;19939;-67
2021/09/13 14:29:03;;;;;;;;;;;19.80;75.90;;;;;;5073514;28;19917;-68
2021/09/13 14:31:29;;;;;;;;;;;19.90;76.40;;;;;;5073427;28;19916;-69
2021/09/13 14:33:55;;;;;;;;;;;19.90;76.10;;;;;;5073031;28;19917;-66